createdAt,value
2023-04-18T00:00:13.087Z,86.40
2023-04-18T00:01:44.829Z,85.45
2023-04-18T00:03:16.653Z,86.59
2023-04-18T00:04:50.394Z,86.55
2023-04-18T00:06:22.591Z,87.73
2023-04-18T00:07:54.284Z,86.68
2023-04-18T00:09:27.382Z,86.40
2023-04-18T00:10:59.048Z,85.94
2023-04-18T00:12:31.876Z,87.16
2023-04-18T00:14:03.598Z,87.48
2023-04-18T00:15:35.491Z,87.47
2023-04-18T00:17:10.434Z,87.82
2023-04-18T00:18:42.120Z,86.91
2023-04-18T00:20:13.679Z,87.63
2023-04-18T00:21:46.000Z,87.67
2023-04-18T00:23:17.538Z,86.72
2023-04-18T00:24:50.778Z,86.50
2023-04-18T00:26:22.366Z,87.40
2023-04-18T00:27:54.041Z,87.23
2023-04-18T00:29:25.627Z,87.51
2023-04-18T00:30:57.316Z,86.93
2023-04-18T00:32:28.996Z,86.56
2023-04-18T00:34:00.628Z,87.19
2023-04-18T00:35:32.231Z,87.95
2023-04-18T00:37:03.827Z,88.11
2023-04-18T00:38:35.477Z,86.74
2023-04-18T00:40:09.719Z,87.42
2023-04-18T00:41:41.450Z,87.49
2023-04-18T00:43:13.436Z,86.83
2023-04-18T00:44:44.991Z,86.67
2023-04-18T00:46:16.608Z,87.57
2023-04-18T00:47:48.281Z,87.79
2023-04-18T00:49:19.916Z,87.51
2023-04-18T00:50:51.593Z,87.33
2023-04-18T00:52:23.180Z,86.18
2023-04-18T00:53:54.747Z,86.97
2023-04-18T00:55:27.652Z,87.48
2023-04-18T00:56:59.258Z,88.36
2023-04-18T00:58:31.208Z,87.31
2023-04-18T01:00:08.551Z,87.72
2023-04-18T01:01:40.355Z,87.36
2023-04-18T01:03:14.657Z,86.82
2023-04-18T01:04:46.424Z,86.65
2023-04-18T01:06:18.037Z,86.76
2023-04-18T01:07:49.609Z,86.71
2023-04-18T01:09:21.460Z,87.25
2023-04-18T01:10:54.387Z,86.55
2023-04-18T01:12:26.027Z,86.82
2023-04-18T01:14:01.548Z,87.27
2023-04-18T01:15:33.196Z,86.04
2023-04-18T01:17:04.787Z,85.64
2023-04-18T01:18:37.033Z,86.28
2023-04-18T01:20:09.800Z,85.96
2023-04-18T01:21:43.790Z,85.35
2023-04-18T01:23:17.116Z,86.03
2023-04-18T01:24:50.218Z,86.34
2023-04-18T01:26:21.805Z,86.08
2023-04-18T01:27:54.318Z,85.74
2023-04-18T01:29:25.974Z,86.18
2023-04-18T01:30:57.725Z,86.16
2023-04-18T01:32:29.644Z,86.55
2023-04-18T01:34:01.223Z,86.02
2023-04-18T01:35:33.515Z,85.66
2023-04-18T01:37:05.080Z,86.87
2023-04-18T01:38:36.670Z,86.34
2023-04-18T01:40:11.124Z,85.59
2023-04-18T01:41:42.756Z,85.77
2023-04-18T01:43:14.614Z,86.35
2023-04-18T01:44:46.162Z,86.36
2023-04-18T01:46:17.857Z,86.67
2023-04-18T01:47:49.560Z,85.90
2023-04-18T01:49:21.141Z,86.67
2023-04-18T01:50:52.800Z,86.37
2023-04-18T01:52:24.454Z,86.09
2023-04-18T01:53:56.058Z,85.60
2023-04-18T01:55:28.983Z,86.00
2023-04-18T01:57:00.570Z,86.25
2023-04-18T01:58:32.117Z,86.25
2023-04-18T02:00:04.524Z,86.37
2023-04-18T02:01:36.137Z,85.71
2023-04-18T02:03:07.892Z,85.49
2023-04-18T02:04:39.600Z,85.86
2023-04-18T02:06:11.212Z,86.18
2023-04-18T02:07:42.829Z,85.34
2023-04-18T02:09:14.393Z,85.79
2023-04-18T02:10:47.337Z,85.48
2023-04-18T02:12:19.052Z,85.47
2023-04-18T02:13:50.614Z,85.49
2023-04-18T02:15:23.789Z,85.03
2023-04-18T02:16:55.449Z,85.43
2023-04-18T02:18:27.197Z,85.29
2023-04-18T02:19:58.801Z,85.43
2023-04-18T02:21:30.532Z,85.87
2023-04-18T02:23:02.344Z,86.46
2023-04-18T02:24:34.043Z,86.27
2023-04-18T02:26:07.105Z,85.85
2023-04-18T02:27:38.741Z,85.85
2023-04-18T02:29:10.788Z,86.43
2023-04-18T02:30:42.401Z,85.78
2023-04-18T02:32:13.996Z,85.93
2023-04-18T02:33:46.460Z,85.68
2023-04-18T02:35:18.078Z,85.84
2023-04-18T02:36:49.677Z,86.55
2023-04-18T02:38:21.440Z,85.61
2023-04-18T02:39:53.333Z,86.57
2023-04-18T02:41:26.350Z,86.02
2023-04-18T02:42:58.187Z,86.31
2023-04-18T02:44:29.795Z,86.53
2023-04-18T02:46:01.404Z,86.26
2023-04-18T02:47:37.700Z,86.69
2023-04-18T02:49:18.902Z,86.79
2023-04-18T02:50:50.503Z,86.39
2023-04-18T02:52:22.875Z,86.68
2023-04-18T02:53:55.605Z,86.78
2023-04-18T02:55:27.212Z,86.88
2023-04-18T02:57:01.278Z,87.31
2023-04-18T02:58:34.736Z,87.30
2023-04-18T03:00:09.602Z,86.61
2023-04-18T03:01:41.234Z,86.63
2023-04-18T03:03:12.999Z,87.44
2023-04-18T03:04:44.637Z,86.77
2023-04-18T03:06:16.223Z,87.28
2023-04-18T03:07:47.845Z,87.32
2023-04-18T03:09:19.516Z,86.94
2023-04-18T03:10:51.089Z,87.35
2023-04-18T03:12:24.078Z,87.39
2023-04-18T03:13:55.835Z,87.17
2023-04-18T03:15:27.731Z,87.05
2023-04-18T03:16:59.432Z,87.45
2023-04-18T03:18:31.430Z,86.43
2023-04-18T03:20:03.240Z,87.61
2023-04-18T03:21:34.874Z,87.46
2023-04-18T03:23:06.593Z,87.60
2023-04-18T03:24:38.267Z,87.85
2023-04-18T03:26:09.923Z,87.58
2023-04-18T03:27:43.849Z,87.66
2023-04-18T03:29:15.764Z,88.55
2023-04-18T03:30:47.378Z,88.23
2023-04-18T03:32:19.113Z,87.93
2023-04-18T03:33:51.683Z,87.63
2023-04-18T03:35:23.356Z,87.41
2023-04-18T03:36:54.965Z,87.86
2023-04-18T03:38:26.715Z,87.53
2023-04-18T03:39:58.299Z,88.12
2023-04-18T03:41:29.913Z,88.42
2023-04-18T03:43:02.946Z,88.94
2023-04-18T03:44:34.531Z,89.02
2023-04-18T03:46:06.171Z,88.79
2023-04-18T03:47:38.048Z,88.74
2023-04-18T03:49:09.708Z,88.00
2023-04-18T03:50:41.450Z,88.66
2023-04-18T03:52:13.336Z,88.40
2023-04-18T03:53:45.016Z,88.88
2023-04-18T03:55:16.686Z,89.12
2023-04-18T03:56:48.300Z,88.36
2023-04-18T03:58:23.694Z,89.04
2023-04-18T03:59:55.412Z,89.04
2023-04-18T04:01:27.067Z,87.05
2023-04-18T04:02:59.053Z,88.93
2023-04-18T04:04:31.032Z,87.87
2023-04-18T04:06:02.701Z,87.62
2023-04-18T04:07:34.398Z,88.66
2023-04-18T04:09:06.402Z,89.16
2023-04-18T04:10:38.042Z,88.78
2023-04-18T04:12:09.772Z,88.07
2023-04-18T04:13:42.736Z,87.86
2023-04-18T04:15:14.443Z,87.79
2023-04-18T04:16:46.129Z,88.90
2023-04-18T04:18:17.851Z,89.02
2023-04-18T04:19:49.845Z,89.11
2023-04-18T04:21:21.505Z,88.31
2023-04-18T04:22:53.929Z,87.20
2023-04-18T04:24:25.665Z,88.77
2023-04-18T04:25:58.639Z,88.87
2023-04-18T04:27:31.763Z,88.71
2023-04-18T04:29:05.076Z,88.68
2023-04-18T04:30:38.265Z,88.67
2023-04-18T04:32:09.923Z,88.87
2023-04-18T04:33:42.606Z,88.40
2023-04-18T04:35:14.290Z,87.11
2023-04-18T04:36:46.754Z,88.81
2023-04-18T04:38:23.079Z,89.31
2023-04-18T04:39:56.567Z,88.95
2023-04-18T04:41:29.408Z,87.42
2023-04-18T04:43:01.375Z,88.45
2023-04-18T04:44:35.586Z,88.28
2023-04-18T04:46:07.813Z,88.56
2023-04-18T04:47:39.610Z,88.86
2023-04-18T04:49:11.639Z,88.85
2023-04-18T04:50:43.847Z,88.86
2023-04-18T04:52:15.652Z,88.42
2023-04-18T04:53:47.324Z,89.11
2023-04-18T04:55:19.116Z,88.97
2023-04-18T04:56:51.318Z,88.38
2023-04-18T04:58:22.965Z,88.89
2023-04-18T04:59:56.250Z,88.46
2023-04-18T05:01:27.991Z,88.48
2023-04-18T05:02:59.979Z,88.67
2023-04-18T05:04:31.862Z,88.22
2023-04-18T05:06:04.064Z,88.69
2023-04-18T05:07:35.717Z,89.10
2023-04-18T05:09:07.531Z,88.66
2023-04-18T05:10:39.311Z,87.56
2023-04-18T05:12:11.044Z,88.30
2023-04-18T05:13:42.884Z,88.49
2023-04-18T05:15:16.338Z,88.48
2023-04-18T05:16:48.064Z,88.32
2023-04-18T05:18:20.794Z,87.56
2023-04-18T05:19:52.747Z,88.04
2023-04-18T05:21:26.274Z,87.52
2023-04-18T05:22:58.130Z,87.29
2023-04-18T05:24:33.003Z,87.90
2023-04-18T05:26:05.122Z,87.16
2023-04-18T05:27:37.013Z,87.11
2023-04-18T05:29:08.783Z,87.15
2023-04-18T05:30:42.132Z,88.03
2023-04-18T05:32:14.786Z,87.80
2023-04-18T05:33:46.577Z,87.66
2023-04-18T05:35:18.536Z,87.81
2023-04-18T05:36:50.605Z,87.50
2023-04-18T05:38:22.350Z,88.02
2023-04-18T05:39:54.134Z,87.28
2023-04-18T05:41:25.860Z,87.20
2023-04-18T05:42:57.567Z,87.85
2023-04-18T05:44:29.536Z,86.98
2023-04-18T05:46:03.099Z,87.25
2023-04-18T05:47:34.945Z,87.99
2023-04-18T05:49:07.006Z,87.25
2023-04-18T05:50:38.862Z,87.59
2023-04-18T05:52:11.535Z,87.59
2023-04-18T05:53:43.381Z,87.47
2023-04-18T05:55:15.394Z,87.36
2023-04-18T05:56:47.191Z,87.07
2023-04-18T05:58:19.050Z,87.60
2023-04-18T05:59:50.798Z,88.25
2023-04-18T06:01:24.034Z,87.26
2023-04-18T06:02:56.028Z,87.20
2023-04-18T06:04:28.145Z,87.78
2023-04-18T06:06:00.116Z,87.26
2023-04-18T06:07:32.159Z,87.10
2023-04-18T06:09:03.984Z,87.00
2023-04-18T06:10:37.758Z,86.59
2023-04-18T06:12:11.110Z,86.76
2023-04-18T06:13:43.267Z,86.63
2023-04-18T06:15:15.006Z,86.82
2023-04-18T06:16:48.315Z,86.60
2023-04-18T06:18:20.155Z,85.96
2023-04-18T06:19:51.949Z,87.13
2023-04-18T06:21:23.972Z,86.30
2023-04-18T06:22:55.806Z,86.68
2023-04-18T06:24:27.984Z,85.32
2023-04-18T06:26:00.880Z,85.32
2023-04-18T06:27:32.787Z,85.86
2023-04-18T06:29:04.574Z,86.24
2023-04-18T06:30:36.624Z,85.80
2023-04-18T06:32:12.483Z,85.74
2023-04-18T06:33:44.219Z,86.07
2023-04-18T06:35:16.401Z,85.75
2023-04-18T06:36:48.183Z,87.05
2023-04-18T06:38:20.249Z,85.15
2023-04-18T06:39:52.206Z,85.73
2023-04-18T06:41:24.000Z,85.59
2023-04-18T06:42:55.943Z,86.33
2023-04-18T06:44:27.678Z,85.49
2023-04-18T06:45:59.494Z,85.62
2023-04-18T06:47:32.707Z,84.92
2023-04-18T06:49:04.472Z,85.18
2023-04-18T06:50:36.345Z,85.42
2023-04-18T06:52:08.085Z,84.79
2023-04-18T06:53:41.925Z,84.33
2023-04-18T06:55:13.895Z,84.53
2023-04-18T06:56:45.795Z,83.90
2023-04-18T06:58:17.868Z,85.07
2023-04-18T06:59:49.653Z,84.36
2023-04-18T07:01:21.548Z,84.23
2023-04-18T07:02:55.213Z,84.73
2023-04-18T07:04:27.215Z,84.50
2023-04-18T07:05:59.055Z,84.52
2023-04-18T07:07:31.197Z,84.16
2023-04-18T07:09:03.064Z,83.40
2023-04-18T07:10:35.057Z,84.50
2023-04-18T07:12:09.163Z,83.83
2023-04-18T07:13:43.319Z,83.20
2023-04-18T07:15:15.242Z,83.46
2023-04-18T07:16:47.359Z,83.74
2023-04-18T07:18:30.245Z,83.86
2023-04-18T07:20:15.467Z,83.05
2023-04-18T07:21:47.502Z,82.71
2023-04-18T07:23:19.385Z,82.51
2023-04-18T07:24:51.108Z,83.64
2023-04-18T07:26:22.836Z,83.01
2023-04-18T07:27:54.620Z,82.93
2023-04-18T07:29:26.406Z,82.05
2023-04-18T07:30:58.482Z,83.06
2023-04-18T07:32:30.841Z,82.17
2023-04-18T07:34:04.888Z,82.20
2023-04-18T07:35:37.165Z,82.54
2023-04-18T07:37:43.580Z,83.21
2023-04-18T07:39:15.693Z,83.50
2023-04-18T07:40:49.299Z,82.35
2023-04-18T07:42:21.326Z,81.74
2023-04-18T07:43:53.513Z,81.57
2023-04-18T07:45:25.939Z,82.31
2023-04-18T07:46:58.057Z,82.28
2023-04-18T07:48:30.191Z,82.57
2023-04-18T07:50:04.064Z,81.79
2023-04-18T07:51:36.209Z,81.54
2023-04-18T07:53:08.398Z,81.17
2023-04-18T07:54:40.279Z,80.83
2023-04-18T07:56:15.319Z,81.88
2023-04-18T07:57:50.483Z,81.24
2023-04-18T07:59:22.282Z,81.80
2023-04-18T08:00:54.228Z,81.50
2023-04-18T08:02:26.096Z,81.07
2023-04-18T08:04:01.747Z,81.29
2023-04-18T08:05:35.671Z,81.34
2023-04-18T08:07:07.612Z,80.55
2023-04-18T08:08:39.568Z,81.67
2023-04-18T08:10:11.709Z,80.55
2023-04-18T08:11:43.580Z,81.60
2023-04-18T08:13:15.674Z,80.84
2023-04-18T08:14:47.534Z,81.82
2023-04-18T08:16:19.406Z,81.35
2023-04-18T08:17:51.598Z,81.44
2023-04-18T08:19:28.794Z,81.14
2023-04-18T08:21:02.436Z,80.38
2023-04-18T08:22:34.323Z,80.48
2023-04-18T08:24:09.132Z,81.42
2023-04-18T08:25:41.540Z,80.13
2023-04-18T08:27:13.505Z,80.19
2023-04-18T08:28:46.587Z,81.32
2023-04-18T08:30:18.794Z,80.90
2023-04-18T08:31:50.994Z,80.40
2023-04-18T08:33:23.854Z,80.35
2023-04-18T08:34:56.203Z,80.59
2023-04-18T08:36:29.602Z,80.78
2023-04-18T08:38:01.556Z,80.47
2023-04-18T08:39:33.435Z,80.04
2023-04-18T08:41:05.803Z,79.52
2023-04-18T08:42:38.735Z,80.01
2023-04-18T08:44:10.730Z,80.26
2023-04-18T08:45:42.681Z,78.67
2023-04-18T08:47:15.099Z,79.63
2023-04-18T08:48:51.724Z,80.20
2023-04-18T08:50:23.578Z,79.61
2023-04-18T08:51:57.686Z,78.96
2023-04-18T08:53:29.506Z,79.52
2023-04-18T08:55:02.911Z,78.85
2023-04-18T08:56:43.978Z,79.07
2023-04-18T08:58:20.411Z,79.41
2023-04-18T08:59:54.145Z,79.53
2023-04-18T09:01:50.758Z,79.58
2023-04-18T09:03:37.520Z,78.36
2023-04-18T09:05:13.383Z,78.01
2023-04-18T09:06:53.671Z,79.83
2023-04-18T09:08:26.862Z,79.30
2023-04-18T09:09:58.681Z,79.04
2023-04-18T09:11:31.871Z,79.82
2023-04-18T09:13:04.549Z,78.86
2023-04-18T09:14:43.282Z,79.61
2023-04-18T09:16:15.626Z,79.26
2023-04-18T09:17:52.743Z,79.20
2023-04-18T09:19:24.758Z,79.65
2023-04-18T09:20:56.982Z,79.73
2023-04-18T09:22:46.204Z,78.41
2023-04-18T09:24:24.128Z,79.27
2023-04-18T09:25:57.494Z,79.62
2023-04-18T09:27:30.658Z,79.99
2023-04-18T09:29:05.914Z,78.37
2023-04-18T09:30:39.556Z,79.17
2023-04-18T09:32:11.742Z,78.14
2023-04-18T09:33:52.930Z,78.66
2023-04-18T09:35:24.965Z,77.75
2023-04-18T09:37:07.813Z,77.43
2023-04-18T09:38:40.691Z,76.26
2023-04-18T09:40:18.890Z,77.85
2023-04-18T09:41:58.635Z,78.30
2023-04-18T09:43:30.493Z,76.68
2023-04-18T09:45:04.535Z,76.26
2023-04-18T09:46:37.138Z,76.82
2023-04-18T09:48:09.278Z,75.78
2023-04-18T09:49:41.526Z,75.30
2023-04-18T09:51:23.068Z,73.08
2023-04-18T09:52:55.220Z,71.46
2023-04-18T09:54:35.910Z,70.30
2023-04-18T09:56:26.822Z,73.24
2023-04-18T09:58:00.354Z,72.77
2023-04-18T09:59:43.223Z,68.70
2023-04-18T10:01:21.844Z,69.67
2023-04-18T10:04:48.519Z,70.21
2023-04-18T10:06:26.040Z,71.21
2023-04-18T10:09:55.676Z,73.09
2023-04-18T10:11:32.236Z,70.47
2023-04-18T10:13:15.039Z,70.81
2023-04-18T10:14:50.235Z,71.12
2023-04-18T10:16:22.003Z,71.81
2023-04-18T10:18:04.310Z,68.50
2023-04-18T10:19:38.233Z,70.55
2023-04-18T10:21:11.385Z,72.92
2023-04-18T10:22:43.466Z,72.62
2023-04-18T10:24:48.863Z,71.33
2023-04-18T10:26:21.153Z,72.30
2023-04-18T10:28:17.584Z,71.37
2023-04-18T10:29:53.164Z,70.64
2023-04-18T10:31:25.549Z,68.28
2023-04-18T10:32:57.588Z,68.47
2023-04-18T10:34:29.424Z,67.71
2023-04-18T10:36:03.729Z,66.65
2023-04-18T10:37:35.873Z,67.10
2023-04-18T10:39:21.553Z,69.82
2023-04-18T10:40:53.672Z,70.23
2023-04-18T10:43:04.407Z,69.15
2023-04-18T10:44:37.885Z,69.82
2023-04-18T10:46:23.775Z,70.07
2023-04-18T10:48:22.064Z,69.02
2023-04-18T10:50:01.685Z,69.57
2023-04-18T10:51:33.751Z,67.78
2023-04-18T10:53:05.828Z,67.18
2023-04-18T10:54:38.978Z,67.02
2023-04-18T10:56:13.818Z,68.33
2023-04-18T10:57:55.114Z,68.00
2023-04-18T10:59:28.951Z,67.72
2023-04-18T11:01:16.109Z,66.75
2023-04-18T11:02:52.327Z,69.35
2023-04-18T11:06:31.256Z,62.33
2023-04-18T11:08:22.281Z,63.33
2023-04-18T11:10:12.751Z,63.79
2023-04-18T11:12:07.343Z,60.97
2023-04-18T11:14:05.909Z,60.98
2023-04-18T11:15:39.924Z,60.70
2023-04-18T11:17:23.668Z,61.98
2023-04-18T11:18:56.033Z,59.74
2023-04-18T11:20:27.786Z,60.71
2023-04-18T11:22:01.220Z,63.62
2023-04-18T11:23:32.952Z,62.36
2023-04-18T11:25:08.013Z,64.24
2023-04-18T11:26:39.847Z,64.44
2023-04-18T11:28:14.790Z,63.87
2023-04-18T11:29:52.033Z,63.96
2023-04-18T11:31:24.568Z,63.97
2023-04-18T11:32:58.932Z,61.62
2023-04-18T11:34:31.073Z,64.15
2023-04-18T11:36:02.790Z,64.17
2023-04-18T11:37:34.934Z,65.52
2023-04-18T11:39:06.708Z,64.13
2023-04-18T11:40:38.615Z,65.25
2023-04-18T11:42:10.678Z,65.92
2023-04-18T11:43:42.762Z,62.04
2023-04-18T11:45:14.918Z,63.82
2023-04-18T11:46:47.739Z,59.11
2023-04-18T11:48:20.994Z,60.58
2023-04-18T11:49:57.185Z,62.47
2023-04-18T11:51:32.994Z,63.82
2023-04-18T11:53:04.600Z,63.17
2023-04-18T11:54:38.677Z,63.58
2023-04-18T11:56:13.289Z,66.12
2023-04-18T11:57:50.525Z,64.27
2023-04-18T11:59:22.176Z,60.79
2023-04-18T12:00:53.836Z,63.76
2023-04-18T12:02:26.386Z,61.97
2023-04-18T12:04:03.409Z,62.48
2023-04-18T12:05:36.347Z,63.50
2023-04-18T12:07:08.167Z,62.93
2023-04-18T12:08:43.018Z,63.72
2023-04-18T12:10:24.134Z,63.20
2023-04-18T12:11:59.554Z,62.65
2023-04-18T12:13:31.832Z,63.14
2023-04-18T12:15:06.697Z,61.59
2023-04-18T12:16:44.342Z,62.22
2023-04-18T12:18:18.320Z,61.93
2023-04-18T12:19:53.609Z,62.41
2023-04-18T12:21:29.540Z,61.65
2023-04-18T12:23:01.192Z,61.91
2023-04-18T12:24:32.870Z,61.77
2023-04-18T12:26:05.699Z,61.77
2023-04-18T12:28:12.957Z,57.30
2023-04-18T12:29:44.633Z,59.78
2023-04-18T12:31:16.458Z,60.54
2023-04-18T12:32:49.380Z,57.53
2023-04-18T12:34:21.087Z,56.76
2023-04-18T12:35:54.294Z,60.13
2023-04-18T12:37:26.005Z,58.40
2023-04-18T12:38:57.646Z,60.10
2023-04-18T12:40:29.431Z,58.46
2023-04-18T12:42:02.238Z,61.70
2023-04-18T12:43:34.094Z,63.57
2023-04-18T12:45:07.807Z,61.37
2023-04-18T12:46:39.779Z,60.95
2023-04-18T12:48:11.594Z,60.36
2023-04-18T12:49:43.222Z,60.86
2023-04-18T12:51:16.246Z,61.42
2023-04-18T12:52:48.144Z,59.67
2023-04-18T12:54:19.946Z,60.30
2023-04-18T12:55:51.894Z,58.72
2023-04-18T12:57:23.629Z,60.20
2023-04-18T12:58:55.381Z,58.40
2023-04-18T13:00:28.254Z,60.29
2023-04-18T13:01:59.953Z,61.16
2023-04-18T13:03:31.920Z,58.72
2023-04-18T13:05:04.144Z,59.73
2023-04-18T13:06:37.762Z,57.08
2023-04-18T13:08:16.921Z,54.20
2023-04-18T13:09:49.588Z,55.75
2023-04-18T13:11:22.472Z,55.40
2023-04-18T13:12:54.257Z,53.69
2023-04-18T13:14:26.696Z,54.53
2023-04-18T13:15:58.348Z,53.97
2023-04-18T13:17:30.143Z,57.07
2023-04-18T13:19:01.942Z,57.02
2023-04-18T13:20:33.807Z,54.86
2023-04-18T13:22:06.886Z,57.28
2023-04-18T13:23:38.506Z,55.67
2023-04-18T13:25:10.802Z,53.10
2023-04-18T13:26:42.887Z,54.07
2023-04-18T13:28:14.596Z,53.22
2023-04-18T13:29:46.447Z,55.06
2023-04-18T13:31:18.104Z,54.10
2023-04-18T13:32:49.769Z,54.72
2023-04-18T13:34:21.462Z,56.24
2023-04-18T13:35:53.170Z,56.73
2023-04-18T13:37:26.240Z,56.90
2023-04-18T13:38:57.963Z,56.00
2023-04-18T13:40:29.581Z,57.37
2023-04-18T13:42:04.440Z,55.57
2023-04-18T13:43:36.085Z,54.70
2023-04-18T13:45:08.219Z,57.05
2023-04-18T13:46:40.067Z,59.59
2023-04-18T13:48:12.527Z,57.64
2023-04-18T13:49:45.785Z,55.19
2023-04-18T13:51:17.450Z,53.81
2023-04-18T13:52:51.858Z,53.01
2023-04-18T13:54:23.705Z,55.75
2023-04-18T13:55:55.803Z,56.94
2023-04-18T13:57:28.456Z,57.59
2023-04-18T13:59:00.046Z,58.24
2023-04-18T14:00:31.776Z,59.26
2023-04-18T14:02:03.587Z,58.37
2023-04-18T14:03:37.570Z,58.05
2023-04-18T14:05:10.672Z,60.18
2023-04-18T14:06:42.485Z,61.84
2023-04-18T14:08:15.564Z,57.60
2023-04-18T14:09:48.263Z,59.87
2023-04-18T14:11:19.930Z,57.13
2023-04-18T14:12:51.756Z,57.93
2023-04-18T14:14:23.426Z,55.61
2023-04-18T14:15:55.135Z,56.55
2023-04-18T14:17:26.869Z,56.91
2023-04-18T14:18:58.522Z,58.31
2023-04-18T14:20:34.439Z,58.58
2023-04-18T14:22:07.834Z,57.92
2023-04-18T14:23:40.829Z,58.83
2023-04-18T14:25:12.621Z,58.57
2023-04-18T14:26:44.316Z,56.53
2023-04-18T14:28:23.739Z,56.28
2023-04-18T14:30:00.110Z,55.45
2023-04-18T14:31:31.858Z,55.72
2023-04-18T14:33:05.598Z,55.49
2023-04-18T14:34:38.218Z,56.94
2023-04-18T14:36:10.596Z,56.46
2023-04-18T14:37:42.246Z,57.65
2023-04-18T14:39:15.410Z,54.30
2023-04-18T14:40:47.255Z,55.97
2023-04-18T14:42:18.988Z,55.49
2023-04-18T14:43:51.594Z,53.58
2023-04-18T14:45:23.414Z,57.03
2023-04-18T14:46:55.460Z,56.07
2023-04-18T14:48:27.568Z,57.35
2023-04-18T14:49:59.394Z,56.02
2023-04-18T14:51:52.665Z,55.50
2023-04-18T14:53:24.774Z,56.08
2023-04-18T14:54:57.784Z,54.94
2023-04-18T14:56:29.416Z,54.95
2023-04-18T14:58:01.261Z,56.14
2023-04-18T14:59:32.891Z,56.39
2023-04-18T15:01:05.116Z,57.83
2023-04-18T15:02:37.248Z,58.18
2023-04-18T15:04:09.181Z,57.04
2023-04-18T15:05:45.039Z,56.41
2023-04-18T15:07:16.733Z,56.62
2023-04-18T15:08:48.396Z,57.11
2023-04-18T15:10:24.706Z,55.80
2023-04-18T15:11:58.190Z,56.66
2023-04-18T15:13:29.873Z,58.29
2023-04-18T15:15:01.561Z,58.16
2023-04-18T15:16:35.275Z,59.74
2023-04-18T15:18:07.407Z,60.17
2023-04-18T15:19:39.051Z,59.42
2023-04-18T15:21:10.758Z,59.18
2023-04-18T15:22:42.374Z,60.93
2023-04-18T15:24:14.406Z,58.94
2023-04-18T15:25:54.060Z,60.72
2023-04-18T15:27:25.751Z,59.64
2023-04-18T15:29:00.127Z,58.10
2023-04-18T15:30:31.831Z,57.15
2023-04-18T15:32:03.729Z,57.82
2023-04-18T15:33:35.603Z,57.96
2023-04-18T15:35:16.080Z,58.00
2023-04-18T15:36:50.562Z,57.47
2023-04-18T15:38:22.179Z,56.57
2023-04-18T15:39:54.210Z,57.06
2023-04-18T15:41:27.642Z,55.79
2023-04-18T15:42:59.640Z,58.17
2023-04-18T15:44:31.639Z,58.73
2023-04-18T15:46:05.100Z,56.43
2023-04-18T15:47:36.898Z,57.27
2023-04-18T15:49:11.448Z,55.97
2023-04-18T15:50:43.152Z,57.61
2023-04-18T15:52:15.964Z,57.10
2023-04-18T15:53:47.667Z,56.61
2023-04-18T15:55:21.223Z,58.29
2023-04-18T15:56:58.202Z,58.14
2023-04-18T15:58:30.474Z,56.97
2023-04-18T16:00:02.509Z,58.15
2023-04-18T16:01:35.648Z,58.69
2023-04-18T16:03:09.980Z,58.15
2023-04-18T16:04:41.834Z,58.05
2023-04-18T16:06:13.977Z,60.52
2023-04-18T16:07:45.812Z,58.50
2023-04-18T16:09:20.179Z,60.11
2023-04-18T16:10:51.989Z,60.61
2023-04-18T16:12:25.193Z,60.92
2023-04-18T16:13:56.806Z,62.00
2023-04-18T16:15:32.002Z,62.57
2023-04-18T16:17:06.672Z,62.66
2023-04-18T16:18:39.187Z,62.30
2023-04-18T16:20:13.538Z,61.79
2023-04-18T16:21:52.420Z,63.25
2023-04-18T16:23:24.753Z,61.78
2023-04-18T16:24:56.393Z,63.28
2023-04-18T16:26:30.906Z,63.00
2023-04-18T16:28:04.345Z,63.15
2023-04-18T16:29:47.281Z,63.63
2023-04-18T16:31:19.102Z,63.76
2023-04-18T16:32:50.970Z,61.57
2023-04-18T16:34:22.738Z,63.49
2023-04-18T16:35:56.627Z,62.24
2023-04-18T16:37:28.271Z,61.86
2023-04-18T16:39:02.675Z,62.33
2023-04-18T16:40:35.077Z,62.96
2023-04-18T16:42:06.737Z,64.19
2023-04-18T16:43:41.571Z,64.03
2023-04-18T16:45:13.259Z,63.46
2023-04-18T16:46:44.981Z,64.49
2023-04-18T16:48:16.702Z,64.99
2023-04-18T16:49:48.659Z,65.00
2023-04-18T16:51:20.540Z,63.89
2023-04-18T16:52:53.539Z,65.02
2023-04-18T16:54:25.319Z,64.84
2023-04-18T16:55:57.211Z,64.39
2023-04-18T16:57:29.049Z,64.58
2023-04-18T16:59:02.655Z,64.91
2023-04-18T17:00:35.839Z,64.69
2023-04-18T17:02:08.874Z,65.64
2023-04-18T17:03:41.107Z,64.34
2023-04-18T17:05:13.034Z,65.86
2023-04-18T17:06:44.959Z,67.01
2023-04-18T17:08:19.537Z,64.28
2023-04-18T17:09:51.888Z,65.55
2023-04-18T17:11:23.614Z,66.29
2023-04-18T17:12:55.213Z,65.60
2023-04-18T17:14:28.453Z,66.08
2023-04-18T17:16:00.296Z,67.34
2023-04-18T17:17:32.151Z,65.80
2023-04-18T17:19:04.065Z,66.81
2023-04-18T17:20:36.442Z,66.49
2023-04-18T17:22:08.151Z,67.82
2023-04-18T17:23:41.542Z,66.65
2023-04-18T17:25:13.374Z,68.44
2023-04-18T17:26:45.027Z,66.52
2023-04-18T17:28:16.659Z,67.36
2023-04-18T17:29:49.896Z,66.99
2023-04-18T17:31:21.568Z,66.98
2023-04-18T17:32:53.227Z,67.61
2023-04-18T17:34:25.009Z,67.06
2023-04-18T17:35:56.811Z,68.79
2023-04-18T17:37:28.441Z,68.50
2023-04-18T17:39:06.213Z,68.36
2023-04-18T17:40:38.066Z,68.58
2023-04-18T17:42:09.902Z,68.24
2023-04-18T17:43:41.716Z,67.02
2023-04-18T17:45:14.707Z,67.99
2023-04-18T17:46:50.391Z,68.21
2023-04-18T17:48:22.287Z,68.15
2023-04-18T17:49:54.637Z,68.59
2023-04-18T17:51:30.041Z,68.69
2023-04-18T17:53:04.528Z,68.67
2023-04-18T17:54:36.284Z,69.29
2023-04-18T17:56:07.933Z,70.58
2023-04-18T17:57:39.612Z,69.66
2023-04-18T17:59:11.284Z,69.58
2023-04-18T18:00:44.404Z,70.17
2023-04-18T18:02:16.514Z,70.34
2023-04-18T18:03:48.617Z,70.36
2023-04-18T18:05:20.711Z,70.95
2023-04-18T18:06:55.366Z,70.96
2023-04-18T18:08:26.986Z,71.22
2023-04-18T18:09:58.596Z,71.02
2023-04-18T18:11:30.274Z,70.56
2023-04-18T18:13:01.943Z,71.23
2023-04-18T18:14:33.604Z,71.09
2023-04-18T18:16:09.985Z,70.50
2023-04-18T18:17:41.601Z,71.58
2023-04-18T18:19:14.917Z,72.67
2023-04-18T18:20:47.190Z,72.20
2023-04-18T18:22:18.832Z,71.94
2023-04-18T18:23:50.471Z,71.66
2023-04-18T18:25:22.234Z,71.44
2023-04-18T18:26:53.913Z,72.42
2023-04-18T18:28:50.919Z,72.18
2023-04-18T18:30:54.036Z,72.63
2023-04-18T18:32:27.151Z,72.11
2023-04-18T18:33:59.001Z,72.60
2023-04-18T18:35:30.675Z,72.54
2023-04-18T18:37:02.343Z,71.97
2023-04-18T18:38:34.130Z,71.94
2023-04-18T18:40:07.452Z,72.70
2023-04-18T18:41:39.360Z,74.00
2023-04-18T18:43:11.162Z,73.43
2023-04-18T18:44:42.948Z,73.33
2023-04-18T18:46:15.027Z,73.24
2023-04-18T18:47:48.084Z,73.49
2023-04-18T18:49:19.738Z,74.61
2023-04-18T18:50:51.716Z,74.95
2023-04-18T18:52:24.694Z,73.44
2023-04-18T18:53:57.196Z,73.22
2023-04-18T18:55:29.420Z,73.38
2023-04-18T18:57:02.834Z,74.90
2023-04-18T18:58:34.570Z,73.84
2023-04-18T19:00:10.767Z,75.44
2023-04-18T19:01:42.461Z,74.61
2023-04-18T19:03:18.462Z,74.13
2023-04-18T19:04:50.267Z,74.95
2023-04-18T19:06:21.929Z,74.60
2023-04-18T19:07:53.564Z,74.39
2023-04-18T19:09:25.206Z,75.29
2023-04-18T19:10:56.933Z,75.47
2023-04-18T19:12:29.192Z,74.60
2023-04-18T19:14:01.056Z,74.92
2023-04-18T19:15:32.733Z,75.29
2023-04-18T19:17:04.966Z,74.88
2023-04-18T19:18:38.123Z,75.47
2023-04-18T19:20:10.200Z,74.82
2023-04-18T19:21:45.797Z,75.37
2023-04-18T19:23:17.584Z,76.18
2023-04-18T19:24:49.367Z,76.16
2023-04-18T19:26:21.309Z,75.47
2023-04-18T19:27:52.957Z,75.97
2023-04-18T19:29:24.523Z,76.26
2023-04-18T19:30:56.270Z,76.21
2023-04-18T19:32:28.014Z,76.95
2023-04-18T19:34:01.210Z,76.14
2023-04-18T19:35:32.883Z,75.67
2023-04-18T19:37:04.784Z,76.03
2023-04-18T19:38:36.395Z,76.09
2023-04-18T19:40:10.270Z,75.60
2023-04-18T19:41:42.017Z,75.55
2023-04-18T19:43:14.318Z,76.37
2023-04-18T19:44:48.987Z,76.57
2023-04-18T19:46:20.898Z,77.66
2023-04-18T19:47:52.632Z,76.93
2023-04-18T19:49:25.757Z,77.37
2023-04-18T19:51:00.341Z,76.10
2023-04-18T19:52:32.165Z,77.19
2023-04-18T19:54:04.711Z,76.74
2023-04-18T19:55:38.766Z,76.38
2023-04-18T19:57:10.512Z,76.84
2023-04-18T19:58:46.094Z,77.99
2023-04-18T20:00:19.913Z,77.98
2023-04-18T20:01:54.132Z,76.58
2023-04-18T20:03:35.672Z,77.04
2023-04-18T20:05:10.047Z,77.43
2023-04-18T20:06:45.594Z,78.63
2023-04-18T20:08:17.467Z,77.72